createdAt,value
2022-12-13T00:02:20.286Z,16.55
2022-12-13T00:04:50.032Z,17.20
2022-12-13T00:07:19.765Z,17.23
2022-12-13T00:09:49.515Z,17.60
2022-12-13T00:12:19.267Z,17.63
2022-12-13T00:14:49.025Z,18.07
2022-12-13T00:17:18.750Z,17.50
2022-12-13T00:19:49.214Z,18.30
2022-12-13T00:22:19.218Z,18.35
2022-12-13T00:24:48.971Z,19.97
2022-12-13T00:27:18.712Z,18.67
2022-12-13T00:29:49.415Z,18.27
2022-12-13T00:32:19.081Z,17.73
2022-12-13T00:34:48.842Z,18.23
2022-12-13T00:37:18.586Z,17.13
2022-12-13T00:39:48.630Z,16.65
2022-12-13T00:42:18.130Z,15.13
2022-12-13T00:44:47.873Z,16.10
2022-12-13T00:47:18.913Z,15.47
2022-12-13T00:49:48.653Z,15.27
2022-12-13T00:52:18.090Z,16.73
2022-12-13T00:54:47.839Z,15.63
2022-12-13T00:57:17.573Z,15.23
2022-12-13T00:59:47.995Z,16.70
2022-12-13T01:02:17.514Z,16.37
2022-12-13T01:04:49.029Z,16.27
2022-12-13T01:07:18.767Z,15.73
2022-12-13T01:09:48.506Z,14.53
2022-12-13T01:12:18.321Z,15.77
2022-12-13T01:14:53.062Z,14.83
2022-12-13T01:17:19.575Z,15.37
2022-12-13T01:19:50.578Z,15.20
2022-12-13T01:22:20.402Z,15.40
2022-12-13T01:24:50.199Z,16.00
2022-12-13T01:27:19.938Z,15.47
2022-12-13T01:29:49.672Z,14.80
2022-12-13T01:32:19.413Z,15.63
2022-12-13T01:34:49.462Z,15.05
2022-12-13T01:37:20.370Z,16.40
2022-12-13T01:39:51.812Z,14.60
2022-12-13T01:42:23.205Z,15.27
2022-12-13T01:45:02.498Z,14.53
2022-12-13T01:47:35.370Z,15.93
2022-12-13T01:50:09.723Z,13.43
2022-12-13T01:52:40.596Z,15.20
2022-12-13T01:55:12.846Z,14.57
2022-12-13T01:57:45.889Z,15.03
2022-12-13T02:00:16.769Z,14.35
2022-12-13T02:02:48.452Z,14.30
2022-12-13T02:05:29.672Z,14.60
2022-12-13T02:08:01.058Z,14.55
2022-12-13T02:10:31.956Z,15.07
2022-12-13T02:13:01.704Z,15.27
2022-12-13T02:15:36.931Z,15.00
2022-12-13T02:18:23.132Z,15.60
2022-12-13T02:21:15.478Z,14.95
2022-12-13T02:24:08.766Z,14.60
2022-12-13T02:26:43.158Z,14.33
2022-12-13T02:29:30.540Z,14.47
2022-12-13T02:32:07.537Z,15.98
2022-12-13T02:34:52.125Z,16.13
2022-12-13T02:37:25.062Z,16.53
2022-12-13T02:40:03.752Z,15.10
2022-12-13T02:42:36.556Z,17.03
2022-12-13T02:45:20.673Z,16.30
2022-12-13T02:47:50.098Z,16.70
2022-12-13T02:50:22.287Z,15.50
2022-12-13T02:52:53.165Z,16.47
2022-12-13T02:55:27.915Z,17.07
2022-12-13T02:57:54.505Z,16.33
2022-12-13T03:00:32.641Z,16.60
2022-12-13T03:03:23.202Z,15.63
2022-12-13T03:06:16.580Z,15.70
2022-12-13T03:08:52.449Z,16.45
2022-12-13T03:11:24.854Z,16.15
2022-12-13T03:14:00.511Z,16.07
2022-12-13T03:16:36.633Z,15.13
2022-12-13T03:19:09.233Z,16.40
2022-12-13T03:21:47.339Z,16.63
2022-12-13T03:24:13.394Z,15.13
2022-12-13T03:26:43.211Z,15.87
2022-12-13T03:29:13.125Z,14.40
2022-12-13T03:31:45.081Z,14.70
2022-12-13T03:34:14.846Z,15.47
2022-12-13T03:36:46.648Z,15.72
2022-12-13T03:39:16.692Z,15.08
2022-12-13T03:41:46.608Z,15.43
2022-12-13T03:44:16.366Z,15.87
2022-12-13T03:46:46.723Z,15.40
2022-12-13T03:49:17.496Z,13.40
2022-12-13T03:51:47.796Z,14.87
2022-12-13T03:54:19.109Z,15.23
2022-12-13T03:56:48.840Z,15.30
2022-12-13T03:59:18.702Z,14.70
2022-12-13T04:01:48.581Z,14.93
2022-12-13T04:04:18.138Z,16.33
2022-12-13T04:06:47.889Z,14.40
2022-12-13T04:09:17.627Z,14.47
2022-12-13T04:12:05.190Z,15.97
2022-12-13T04:14:35.797Z,15.53
2022-12-13T04:17:05.537Z,15.83
2022-12-13T04:19:35.308Z,14.40
2022-12-13T04:22:06.614Z,13.60
2022-12-13T04:24:37.615Z,14.58
2022-12-13T04:27:07.658Z,14.73
2022-12-13T04:29:37.145Z,16.35
2022-12-13T04:32:25.969Z,15.77
2022-12-13T04:34:39.901Z,14.60
2022-12-13T04:37:10.704Z,15.67
2022-12-13T04:39:40.453Z,15.77
2022-12-13T04:42:12.026Z,14.73
2022-12-13T04:44:46.029Z,15.13
2022-12-13T04:47:13.212Z,14.43
2022-12-13T04:49:43.041Z,16.00
2022-12-13T04:52:12.839Z,14.00
2022-12-13T04:54:44.569Z,15.50
2022-12-13T04:57:14.769Z,16.10
2022-12-13T04:59:46.137Z,14.37
2022-12-13T05:02:23.364Z,16.35
2022-12-13T05:04:47.499Z,14.67
2022-12-13T05:07:18.952Z,16.30
2022-12-13T05:09:48.688Z,15.47
2022-12-13T05:12:22.513Z,15.32
2022-12-13T05:14:49.873Z,15.27
2022-12-13T05:17:19.429Z,14.45
2022-12-13T05:19:49.172Z,13.77
2022-12-13T05:22:20.840Z,15.48
2022-12-13T05:24:50.946Z,15.63
2022-12-13T05:27:24.007Z,15.93
2022-12-13T05:29:57.669Z,15.67
2022-12-13T05:32:23.459Z,14.50
2022-12-13T05:34:53.160Z,15.33
2022-12-13T05:37:22.908Z,15.80
2022-12-13T05:39:52.640Z,15.10
2022-12-13T05:42:22.220Z,15.03
2022-12-13T05:44:54.168Z,16.33
2022-12-13T05:47:23.936Z,15.90
2022-12-13T05:49:53.909Z,15.30
2022-12-13T05:52:30.364Z,15.23
2022-12-13T05:55:00.996Z,15.67
2022-12-13T05:57:30.585Z,15.17
2022-12-13T06:00:00.644Z,14.53
2022-12-13T06:02:30.557Z,14.83
2022-12-13T06:05:00.400Z,15.00
2022-12-13T06:07:30.145Z,17.00
2022-12-13T06:10:10.644Z,16.63
2022-12-13T06:12:32.729Z,17.05
2022-12-13T06:15:02.982Z,15.67
2022-12-13T06:17:36.931Z,16.27
2022-12-13T06:20:23.372Z,16.17
2022-12-13T06:22:40.143Z,16.87
2022-12-13T06:25:31.170Z,18.87
2022-12-13T06:27:41.758Z,17.57
2022-12-13T06:30:13.375Z,17.53
2022-12-13T06:32:44.095Z,16.77
2022-12-13T06:35:29.038Z,18.92
2022-12-13T06:37:45.159Z,20.03
2022-12-13T06:40:17.643Z,22.50
2022-12-13T06:42:46.428Z,19.93
2022-12-13T06:45:15.926Z,20.13
2022-12-13T06:47:46.023Z,21.43
2022-12-13T06:50:15.784Z,19.90
2022-12-13T06:52:47.508Z,19.50
2022-12-13T06:55:23.509Z,21.15
2022-12-13T06:57:49.215Z,21.47
2022-12-13T07:00:22.515Z,19.27
2022-12-13T07:02:55.681Z,18.63
2022-12-13T07:05:27.239Z,18.57
2022-12-13T07:07:57.039Z,20.03
2022-12-13T07:10:26.503Z,20.68
2022-12-13T07:12:56.553Z,19.70
2022-12-13T07:15:26.482Z,20.63
2022-12-13T07:17:56.277Z,21.27
2022-12-13T07:20:25.721Z,21.50
2022-12-13T07:22:58.821Z,19.77
2022-12-13T07:25:29.469Z,20.23
2022-12-13T07:28:02.866Z,20.07
2022-12-13T07:30:40.653Z,22.27
2022-12-13T07:33:07.900Z,22.43
2022-12-13T07:35:38.391Z,23.00
2022-12-13T07:38:11.373Z,22.85
2022-12-13T07:40:42.132Z,21.70
2022-12-13T07:43:12.026Z,20.67
2022-12-13T07:45:41.774Z,22.23
2022-12-13T07:48:11.594Z,22.43
2022-12-13T07:50:41.415Z,23.67
2022-12-13T07:53:11.534Z,24.43
2022-12-13T07:55:41.279Z,22.07
2022-12-13T07:58:14.007Z,23.42
2022-12-13T08:00:46.852Z,24.05
2022-12-13T08:03:24.404Z,24.00
2022-12-13T08:05:49.305Z,24.40
2022-12-13T08:08:20.754Z,22.15
2022-12-13T08:10:50.493Z,25.60
2022-12-13T08:13:20.933Z,25.08
2022-12-13T08:15:51.286Z,24.07
2022-12-13T08:18:20.987Z,25.77
2022-12-13T08:20:51.024Z,24.70
2022-12-13T08:23:21.033Z,24.83
2022-12-13T08:25:55.109Z,26.47
2022-12-13T08:28:26.062Z,26.10
2022-12-13T08:30:55.965Z,25.97
2022-12-13T08:33:25.698Z,25.57
2022-12-13T08:35:55.437Z,26.43
2022-12-13T08:38:25.529Z,23.62
2022-12-13T08:40:56.769Z,24.13
2022-12-13T08:43:26.578Z,24.90
2022-12-13T08:46:01.242Z,27.13
2022-12-13T08:48:28.289Z,26.45
2022-12-13T08:51:03.566Z,25.57
2022-12-13T08:53:40.822Z,24.52
2022-12-13T08:56:10.665Z,26.07
2022-12-13T08:58:41.065Z,26.00
2022-12-13T09:01:12.359Z,26.73
2022-12-13T09:03:42.153Z,27.27
2022-12-13T09:06:14.788Z,26.73
2022-12-13T09:08:51.753Z,26.03
2022-12-13T09:11:20.790Z,26.83
2022-12-13T09:13:48.777Z,28.02
2022-12-13T09:16:24.295Z,26.60
2022-12-13T09:18:56.202Z,25.43
2022-12-13T09:21:30.942Z,25.57
2022-12-13T09:24:01.762Z,25.93
2022-12-13T09:26:37.717Z,25.60
2022-12-13T09:29:10.533Z,25.63
2022-12-13T09:31:34.710Z,27.23
2022-12-13T09:34:06.399Z,26.07
2022-12-13T09:36:36.628Z,24.83
2022-12-13T09:39:06.827Z,26.42
2022-12-13T09:41:40.728Z,24.90
2022-12-13T09:44:32.968Z,25.28
2022-12-13T09:47:03.970Z,24.27
2022-12-13T09:49:38.590Z,25.80
2022-12-13T09:52:21.194Z,25.23
2022-12-13T09:54:49.221Z,24.10
2022-12-13T09:57:32.401Z,25.32
2022-12-13T09:59:58.648Z,25.70
2022-12-13T10:02:31.689Z,26.30
2022-12-13T10:05:34.287Z,24.73
2022-12-13T10:08:02.274Z,23.83
2022-12-13T10:10:31.949Z,24.57
2022-12-13T10:13:16.195Z,23.83
2022-12-13T10:15:49.064Z,23.53
2022-12-13T10:18:21.870Z,23.38
2022-12-13T10:20:51.964Z,23.75
2022-12-13T10:24:06.955Z,23.60
2022-12-13T10:26:03.331Z,22.37
2022-12-13T10:28:33.000Z,25.77
2022-12-13T10:31:03.425Z,23.25
2022-12-13T10:33:35.728Z,24.57
2022-12-13T10:36:11.090Z,24.50
2022-12-13T10:38:43.352Z,22.57
2022-12-13T10:41:38.551Z,23.53
2022-12-13T10:44:15.373Z,22.25
2022-12-13T10:46:50.868Z,23.87
2022-12-13T10:49:23.875Z,24.02
2022-12-13T10:51:54.730Z,24.57
2022-12-13T10:54:38.347Z,23.67
2022-12-13T10:57:04.471Z,24.33
2022-12-13T10:59:40.121Z,23.85
2022-12-13T11:02:36.263Z,23.90
2022-12-13T11:05:28.260Z,21.90
2022-12-13T11:08:01.118Z,23.40
2022-12-13T11:10:31.184Z,23.53
2022-12-13T11:13:06.288Z,23.13
2022-12-13T11:15:39.100Z,22.93
2022-12-13T11:18:14.064Z,23.05
2022-12-13T11:20:55.980Z,22.47
2022-12-13T11:23:34.286Z,23.17
2022-12-13T11:26:12.102Z,23.02
2022-12-13T11:28:47.819Z,22.70
2022-12-13T11:31:36.962Z,22.00
2022-12-13T11:34:22.717Z,22.47
2022-12-13T11:37:04.305Z,22.85
2022-12-13T11:39:39.888Z,21.50
2022-12-13T11:42:19.853Z,23.10
2022-12-13T11:44:58.481Z,21.57
2022-12-13T11:47:34.079Z,22.27
2022-12-13T11:50:08.329Z,22.35
2022-12-13T11:52:44.584Z,21.50
2022-12-13T11:55:22.654Z,20.67
2022-12-13T11:58:04.942Z,21.33
2022-12-13T12:00:49.284Z,22.13
2022-12-13T12:03:24.702Z,21.43
2022-12-13T12:06:11.960Z,21.00
2022-12-13T12:08:47.947Z,21.37
2022-12-13T12:11:38.891Z,21.33
2022-12-13T12:14:14.087Z,23.25
2022-12-13T12:16:56.225Z,20.20
2022-12-13T12:19:33.007Z,22.10
2022-12-13T12:22:17.231Z,23.87
2022-12-13T12:25:05.060Z,22.70
2022-12-13T12:27:37.831Z,21.43
2022-12-13T12:30:13.594Z,21.48
2022-12-13T12:35:23.931Z,20.10
2022-12-13T12:38:05.609Z,19.13
2022-12-13T12:43:38.218Z,20.37
2022-12-13T12:46:38.449Z,21.90
2022-12-13T12:49:12.396Z,19.43
2022-12-13T12:51:57.576Z,20.10
2022-12-13T12:54:35.398Z,20.83
2022-12-13T12:57:19.699Z,20.47
2022-12-13T12:59:56.777Z,19.80
2022-12-13T13:02:29.053Z,21.03
2022-12-13T13:05:01.571Z,21.43
2022-12-13T13:07:40.061Z,20.97
2022-12-13T13:10:26.092Z,19.40
2022-12-13T13:12:43.318Z,20.30
2022-12-13T13:15:35.666Z,20.20
2022-12-13T13:18:28.033Z,19.53
2022-12-13T13:21:26.490Z,20.43
2022-12-13T13:24:11.268Z,20.80
2022-12-13T13:26:43.499Z,19.97
2022-12-13T13:29:28.737Z,20.50
2022-12-13T13:32:28.520Z,19.40
2022-12-13T13:34:48.184Z,19.80
2022-12-13T13:37:24.653Z,19.62
2022-12-13T13:40:00.066Z,19.43
2022-12-13T13:42:30.658Z,20.33
2022-12-13T13:45:23.558Z,20.65
2022-12-13T13:48:23.729Z,19.63
2022-12-13T13:50:57.040Z,18.73
2022-12-13T13:53:32.521Z,20.63
2022-12-13T13:56:05.009Z,21.20
2022-12-13T13:58:54.076Z,20.00
2022-12-13T14:01:45.949Z,20.43
2022-12-13T14:04:38.263Z,20.45
2022-12-13T14:07:18.868Z,23.07
2022-12-13T14:10:08.184Z,21.35
2022-12-13T14:13:06.249Z,21.27
2022-12-13T14:16:00.416Z,19.32
2022-12-13T14:18:50.975Z,19.07
2022-12-13T14:21:41.522Z,20.67
2022-12-13T14:24:23.163Z,20.60
2022-12-13T14:27:01.893Z,19.67
2022-12-13T14:29:37.606Z,21.10
2022-12-13T14:35:26.259Z,21.80
2022-12-13T14:37:39.736Z,19.40
2022-12-13T14:40:32.633Z,19.88
2022-12-13T14:43:02.530Z,21.82
2022-12-13T14:45:36.411Z,21.30
2022-12-13T14:48:28.682Z,20.55
2022-12-13T14:50:50.603Z,22.60
2022-12-13T14:53:26.752Z,20.87
2022-12-13T14:56:08.685Z,20.83
2022-12-13T14:58:39.486Z,20.07
2022-12-13T15:01:29.419Z,21.47
2022-12-13T15:04:22.628Z,19.87
2022-12-13T15:07:04.417Z,20.95
2022-12-13T15:09:40.150Z,21.27
2022-12-13T15:14:46.918Z,19.73
2022-12-13T15:17:36.598Z,19.37
2022-12-13T15:20:30.859Z,20.06
2022-12-13T15:23:08.325Z,20.77
2022-12-13T15:25:39.618Z,20.92
2022-12-13T15:28:18.222Z,20.80
2022-12-13T15:33:21.065Z,20.57
2022-12-13T15:35:53.402Z,20.92
2022-12-13T15:38:28.327Z,18.93
2022-12-13T15:40:54.957Z,20.57
2022-12-13T15:43:28.071Z,20.77
2022-12-13T15:45:58.084Z,21.37
2022-12-13T15:48:33.835Z,21.90
2022-12-13T15:51:28.727Z,21.20
2022-12-13T15:54:09.354Z,21.67
2022-12-13T15:56:44.108Z,21.53
2022-12-13T15:59:25.534Z,21.97
2022-12-13T16:01:58.423Z,20.30
2022-12-13T16:04:30.017Z,19.42
2022-12-13T16:07:01.649Z,19.87
2022-12-13T16:09:34.457Z,23.97
2022-12-13T16:12:07.869Z,22.98
2022-12-13T16:14:40.926Z,22.53
2022-12-13T16:17:24.902Z,21.53
2022-12-13T16:19:58.335Z,22.60
2022-12-13T16:22:27.849Z,20.53
2022-12-13T16:24:57.761Z,20.57
2022-12-13T16:27:27.501Z,24.47
2022-12-13T16:29:57.538Z,27.87
2022-12-13T16:32:27.235Z,25.47
2022-12-13T16:34:56.981Z,49.23
2022-12-13T16:37:27.620Z,25.30
2022-12-13T16:39:57.137Z,27.45
2022-12-13T16:42:27.324Z,24.00
2022-12-13T16:45:32.465Z,24.13
2022-12-13T16:47:41.790Z,21.03
2022-12-13T16:50:04.323Z,22.50
2022-12-13T16:52:34.069Z,21.93
2022-12-13T16:55:03.820Z,22.30
2022-12-13T16:57:33.612Z,20.83
2022-12-13T17:00:03.984Z,23.30
2022-12-13T17:02:33.793Z,19.87
2022-12-13T17:05:04.014Z,19.67
2022-12-13T17:07:35.332Z,22.43
2022-12-13T17:10:06.869Z,21.50
2022-12-13T17:12:36.688Z,21.40
2022-12-13T17:15:09.088Z,19.93
2022-12-13T17:17:40.541Z,20.70
2022-12-13T17:20:18.081Z,23.36
2022-12-13T17:22:48.039Z,21.47
2022-12-13T17:25:17.889Z,20.17
2022-12-13T17:27:47.644Z,19.97
2022-12-13T17:30:19.014Z,19.75
2022-12-13T17:32:48.835Z,20.33
2022-12-13T17:35:19.095Z,18.90
2022-12-13T17:37:48.911Z,21.67
2022-12-13T17:40:18.885Z,19.27
2022-12-13T17:42:52.502Z,20.43
2022-12-13T17:45:23.033Z,23.60
2022-12-13T17:47:52.778Z,19.93
2022-12-13T17:50:22.277Z,19.03
2022-12-13T17:52:52.012Z,18.77
2022-12-13T17:55:21.773Z,19.60
2022-12-13T17:57:51.818Z,20.00
2022-12-13T18:00:23.421Z,20.23
2022-12-13T18:02:55.433Z,19.10
2022-12-13T18:05:27.577Z,18.73
2022-12-13T18:07:57.616Z,19.82
2022-12-13T18:10:29.977Z,21.27
2022-12-13T18:12:58.941Z,38.40
2022-12-13T18:15:28.784Z,22.87
2022-12-13T18:18:11.329Z,21.93
2022-12-13T18:20:30.275Z,22.67
2022-12-13T18:23:00.019Z,38.63
2022-12-13T18:25:30.733Z,40.23
2022-12-13T18:28:01.304Z,41.83
2022-12-13T18:30:32.630Z,28.13
2022-12-13T18:33:02.677Z,32.00
2022-12-13T18:35:32.610Z,30.95
2022-12-13T18:38:02.332Z,24.77
2022-12-13T18:40:32.451Z,22.13
2022-12-13T18:43:02.261Z,23.07
2022-12-13T18:45:32.068Z,22.43
2022-12-13T18:48:01.882Z,22.17
2022-12-13T18:50:31.632Z,20.97
2022-12-13T18:53:01.139Z,20.90
2022-12-13T18:55:31.374Z,20.55
2022-12-13T18:58:01.109Z,22.07
2022-12-13T19:00:30.884Z,20.13
2022-12-13T19:03:01.344Z,45.40
2022-12-13T19:05:31.104Z,29.37
2022-12-13T19:08:00.844Z,27.73
2022-12-13T19:10:30.630Z,27.27
2022-12-13T19:13:00.888Z,21.90
2022-12-13T19:15:30.698Z,24.03
2022-12-13T19:18:00.469Z,22.67
2022-12-13T19:20:31.022Z,22.17
2022-12-13T19:23:00.756Z,19.73
2022-12-13T19:25:30.500Z,18.83
2022-12-13T19:28:00.274Z,24.57
2022-12-13T19:30:29.791Z,20.85
2022-12-13T19:32:59.837Z,19.87
2022-12-13T19:35:29.885Z,19.40
2022-12-13T19:38:00.103Z,19.52
2022-12-13T19:40:29.929Z,19.02
2022-12-13T19:42:59.663Z,18.17
2022-12-13T19:45:29.411Z,19.37
2022-12-13T19:47:59.465Z,19.27
2022-12-13T19:50:30.249Z,18.30
2022-12-13T19:53:00.073Z,18.83
2022-12-13T19:55:29.813Z,18.87
2022-12-13T19:58:00.705Z,18.40
2022-12-13T20:00:30.544Z,18.83
2022-12-13T20:03:00.314Z,17.70
2022-12-13T20:05:30.061Z,17.47
2022-12-13T20:08:00.359Z,18.23
2022-12-13T20:10:30.132Z,17.32
2022-12-13T20:13:00.235Z,17.55
2022-12-13T20:15:30.648Z,16.10
2022-12-13T20:18:00.936Z,16.17
2022-12-13T20:20:47.039Z,18.52
2022-12-13T20:23:02.428Z,17.97
2022-12-13T20:25:32.178Z,17.30
2022-12-13T20:28:01.926Z,17.10
2022-12-13T20:30:32.850Z,16.83
2022-12-13T20:33:02.691Z,18.13
2022-12-13T20:35:32.428Z,16.20
2022-12-13T20:38:03.342Z,17.40
2022-12-13T20:40:33.655Z,16.73
2022-12-13T20:43:03.396Z,16.57
2022-12-13T20:45:33.772Z,16.47
2022-12-13T20:48:03.530Z,17.77
2022-12-13T20:50:32.963Z,16.25
2022-12-13T20:53:03.012Z,17.82
2022-12-13T20:55:35.345Z,16.17
2022-12-13T20:58:06.368Z,15.93
2022-12-13T21:00:36.200Z,16.50
2022-12-13T21:03:06.007Z,16.00
2022-12-13T21:05:35.743Z,16.73
2022-12-13T21:08:24.614Z,15.20
2022-12-13T21:11:04.929Z,15.90
2022-12-13T21:16:02.491Z,14.70
2022-12-13T21:18:32.294Z,14.80
2022-12-13T21:21:02.111Z,15.00
2022-12-13T21:23:31.915Z,14.00
2022-12-13T21:26:01.681Z,14.10
2022-12-13T21:28:32.005Z,13.10
2022-12-13T21:31:04.556Z,14.83
2022-12-13T21:33:35.629Z,15.57
2022-12-13T21:36:16.676Z,13.87
2022-12-13T21:38:46.425Z,13.50
2022-12-13T21:41:16.323Z,14.07
2022-12-13T21:43:48.267Z,13.63
2022-12-13T21:46:19.859Z,13.25
2022-12-13T21:48:50.928Z,14.10
2022-12-13T21:51:23.512Z,13.10
2022-12-13T21:53:54.699Z,13.13
2022-12-13T21:56:44.687Z,13.63
2022-12-13T21:59:20.669Z,13.07
2022-12-13T22:02:12.774Z,13.23
2022-12-13T22:04:48.485Z,13.30
2022-12-13T22:07:20.503Z,12.90
2022-12-13T22:09:51.507Z,12.20
2022-12-13T22:12:29.922Z,13.93
2022-12-13T22:14:59.725Z,11.77
2022-12-13T22:17:35.192Z,12.10
2022-12-13T22:20:02.332Z,12.30
2022-12-13T22:22:33.478Z,12.23
2022-12-13T22:25:04.050Z,12.50
2022-12-13T22:27:33.811Z,13.43
2022-12-13T22:30:03.561Z,13.83
2022-12-13T22:32:33.876Z,13.60
2022-12-13T22:35:04.725Z,14.85
2022-12-13T22:37:34.794Z,14.53
2022-12-13T22:40:07.841Z,16.40
2022-12-13T22:42:37.637Z,14.57
2022-12-13T22:45:08.776Z,15.28
2022-12-13T22:47:38.519Z,15.13
2022-12-13T22:50:11.600Z,15.10
2022-12-13T22:52:41.321Z,15.37
2022-12-13T22:55:10.979Z,14.90
2022-12-13T22:57:40.715Z,14.50
2022-12-13T23:00:13.013Z,15.23
2022-12-13T23:02:42.817Z,14.23
2022-12-13T23:05:12.580Z,13.70
2022-12-13T23:07:42.344Z,13.70
2022-12-13T23:10:15.108Z,14.57
2022-12-13T23:13:03.243Z,13.88
2022-12-13T23:15:34.484Z,13.07
2022-12-13T23:18:04.310Z,12.83
2022-12-13T23:20:35.240Z,12.90
2022-12-13T23:23:05.077Z,13.47
2022-12-13T23:25:34.822Z,14.13
2022-12-13T23:28:04.851Z,15.38
2022-12-13T23:30:34.383Z,12.18
2022-12-13T23:33:04.193Z,12.73
2022-12-13T23:35:34.008Z,11.43
2022-12-13T23:38:03.752Z,12.00
2022-12-13T23:40:33.513Z,11.97
2022-12-13T23:43:03.000Z,11.05
2022-12-13T23:45:32.749Z,10.47
2022-12-13T23:48:02.481Z,10.63
2022-12-13T23:50:31.935Z,11.07
2022-12-13T23:53:01.658Z,11.73
2022-12-13T23:55:31.394Z,11.10
2022-12-13T23:58:01.153Z,11.30
